Time;durP1;ratioP1;P1;durP2;ratioP2;P2;SDS_P1;SDS_P2;PMS_P1;PMS_P2;Temp;Humidity;BMP_temperature;BMP_pressure;BME280_temperature;BME280_humidity;BME280_pressure;Samples;Min_cycle;Max_cycle;Signal;HPM_P1;HPM_P2
2021/12/30 00:01:28;;;;;;;1.00;0.53;;;;;;;10.96;100.00;154174.06;4993142;28;20460;-77
2021/12/30 00:04:06;;;;;;;0.90;0.50;;;;;;;10.87;100.00;154152.03;4992150;28;20465;-77
2021/12/30 00:06:41;;;;;;;0.90;0.50;;;;;;;10.87;100.00;154150.72;4990912;28;20541;-77
2021/12/30 00:09:18;;;;;;;1.23;0.67;;;;;;;10.87;100.00;154150.72;5006909;28;20476;-77
2021/12/30 00:11:53;;;;;;;1.33;0.57;;;;;;;10.93;100.00;154167.53;5007339;28;20450;-77
2021/12/30 00:14:29;;;;;;;1.30;0.57;;;;;;;10.88;100.00;154154.56;5005821;28;20442;-77
2021/12/30 00:17:05;;;;;;;2.60;0.70;;;;;;;10.86;100.00;154149.41;4990248;28;20437;-77
2021/12/30 00:19:42;;;;;;;1.10;0.67;;;;;;;10.88;100.00;154154.56;4990747;28;20456;-77
2021/12/30 00:22:17;;;;;;;0.93;0.57;;;;;;;10.88;100.00;154154.56;4990875;28;20457;-77
2021/12/30 00:24:53;;;;;;;1.20;0.60;;;;;;;10.86;100.00;154148.09;4975529;28;20476;-77
2021/12/30 00:27:28;;;;;;;1.40;0.70;;;;;;;10.86;100.00;154149.41;5007110;28;20449;-77
2021/12/30 00:30:06;;;;;;;1.77;0.90;;;;;;;10.91;100.00;154162.34;5007521;28;20539;-77
2021/12/30 00:32:42;;;;;;;1.67;0.87;;;;;;;10.99;100.00;154181.78;4991235;28;20429;-77
2021/12/30 00:35:19;;;;;;;1.83;0.60;;;;;;;10.94;100.00;154170.13;5006966;28;20499;-77
2021/12/30 00:37:54;;;;;;;1.07;0.70;;;;;;;10.96;100.00;154175.31;4978928;28;20454;-78
2021/12/30 00:40:30;;;;;;;1.23;0.60;;;;;;;10.85;100.00;154146.84;4970937;28;20473;-77
2021/12/30 00:43:06;;;;;;;1.37;0.83;;;;;;;10.96;100.00;154175.31;5006706;28;20449;-77
2021/12/30 00:45:42;;;;;;;1.47;0.53;;;;;;;10.96;100.00;154174.06;5010295;28;20497;-77
2021/12/30 00:48:17;;;;;;;1.60;0.90;;;;;;;10.89;100.00;154157.19;4995127;28;20943;-77
2021/12/30 00:50:56;;;;;;;1.13;0.70;;;;;;;10.89;100.00;154155.88;4994090;28;20448;-77
2021/12/30 00:53:31;;;;;;;2.40;0.80;;;;;;;10.93;100.00;154167.53;5010205;28;20785;-77
2021/12/30 00:56:07;;;;;;;3.00;1.37;;;;;;;10.94;100.00;154170.13;5010348;28;20441;-77
2021/12/30 00:58:43;;;;;;;1.40;0.97;;;;;;;10.98;100.00;154180.53;4993703;28;20445;-77
2021/12/30 01:01:18;;;;;;;2.20;0.87;;;;;;;11.01;100.00;154188.25;5004359;28;20551;-77
2021/12/30 01:03:54;;;;;;;2.10;0.70;;;;;;;10.96;100.00;154174.06;4979875;28;20474;-77
2021/12/30 01:06:31;;;;;;;1.50;0.63;;;;;;;11.03;100.00;154192.16;4974261;28;20497;-77
2021/12/30 01:09:07;;;;;;;2.00;0.87;;;;;;;11.02;100.00;154190.84;4974888;28;20546;-77
2021/12/30 01:11:42;;;;;;;1.30;0.63;;;;;;;11.00;100.00;154185.69;4959674;28;20507;-77
2021/12/30 01:14:21;;;;;;;2.40;0.60;;;;;;;11.00;100.00;154185.69;4975577;28;20411;-77
2021/12/30 01:17:00;;;;;;;1.53;0.67;;;;;;;11.01;100.00;154188.25;5004307;28;20940;-77
2021/12/30 01:19:45;;;;;;;1.50;0.80;;;;;;;10.95;100.00;154172.75;5010173;28;20478;-77
2021/12/30 01:22:24;;;;;;;2.03;0.80;;;;;;;10.95;100.00;154171.44;4994708;28;20453;-77
2021/12/30 01:25:00;;;;;;;3.87;0.90;;;;;;;10.91;100.00;154161.06;4994712;28;20457;-77
2021/12/30 01:27:36;;;;;;;1.27;1.00;;;;;;;10.87;100.00;154152.03;5009999;28;20810;-77
2021/12/30 01:30:14;;;;;;;1.30;1.00;;;;;;;10.83;100.00;154141.63;4993520;28;20438;-77
2021/12/30 01:32:50;;;;;;;2.63;0.90;;;;;;;10.88;100.00;154153.31;4994476;28;20944;-77
2021/12/30 01:35:26;;;;;;;1.80;0.83;;;;;;;10.83;100.00;154140.31;5009752;28;20433;-77
2021/12/30 01:38:05;;;;;;;1.97;0.70;;;;;;;10.76;100.00;154123.53;4985198;28;20438;-77
2021/12/30 01:40:41;;;;;;;1.50;1.00;;;;;;;10.76;100.00;154122.22;5010208;28;20433;-77
2021/12/30 01:43:18;;;;;;;1.43;0.90;;;;;;;10.75;100.00;154119.66;5010490;28;20555;-77
2021/12/30 01:45:53;;;;;;;1.13;0.87;;;;;;;10.72;100.00;154113.13;5009061;28;20461;-77
2021/12/30 01:48:29;;;;;;;1.40;0.70;;;;;;;10.71;100.00;154109.28;5009388;28;20500;-77
2021/12/30 01:51:05;;;;;;;1.53;0.60;;;;;;;10.72;100.00;154113.13;5009496;28;20448;-77
2021/12/30 01:53:42;;;;;;;1.10;0.80;;;;;;;10.68;100.00;154102.78;5009817;28;20491;-77
2021/12/30 01:56:18;;;;;;;2.37;0.80;;;;;;;10.67;100.00;154100.19;5006301;28;20532;-77
2021/12/30 01:58:54;;;;;;;2.30;0.90;;;;;;;10.68;100.00;154102.78;4993990;28;20464;-77
2021/12/30 02:01:31;;;;;;;1.60;0.90;;;;;;;10.70;100.00;154107.97;4987100;28;20492;-77
2021/12/30 02:04:07;;;;;;;1.10;0.80;;;;;;;10.66;100.00;154096.31;5003990;28;20442;-77
2021/12/30 02:06:42;;;;;;;1.10;0.77;;;;;;;10.64;100.00;154092.47;4994356;28;20969;-77
2021/12/30 02:09:20;;;;;;;2.10;0.80;;;;;;;10.62;100.00;154085.94;4992705;28;20460;-77
2021/12/30 02:11:56;;;;;;;1.63;0.77;;;;;;;10.61;100.00;154084.69;4992852;28;20781;-77
2021/12/30 02:14:33;;;;;;;1.80;1.10;;;;;;;10.58;100.00;154076.91;5008321;28;20894;-77
2021/12/30 02:17:09;;;;;;;2.47;1.10;;;;;;;10.59;100.00;154079.47;4993333;28;20457;-77
2021/12/30 02:19:44;;;;;;;2.17;0.83;;;;;;;10.56;100.00;154071.75;4993522;28;20449;-77
2021/12/30 02:22:21;;;;;;;1.27;0.80;;;;;;;10.54;100.00;154066.53;4994866;28;20445;-77
2021/12/30 02:24:59;;;;;;;2.30;0.87;;;;;;;10.56;100.00;154071.75;4972377;28;21074;-77
2021/12/30 02:27:34;;;;;;;1.40;0.73;;;;;;;10.59;100.00;154079.47;5008799;28;20465;-77
2021/12/30 02:30:11;;;;;;;1.70;0.90;;;;;;;10.59;100.00;154078.22;4977337;28;20941;-77
2021/12/30 02:32:46;;;;;;;1.90;1.27;;;;;;;10.59;100.00;154079.47;5008830;28;20587;-77
2021/12/30 02:35:22;;;;;;;2.23;0.80;;;;;;;10.56;100.00;154071.75;4958812;28;20453;-77
2021/12/30 02:38:00;;;;;;;1.40;0.80;;;;;;;10.57;100.00;154074.31;4990081;28;20450;-77
2021/12/30 02:40:39;;;;;;;1.00;0.70;;;;;;;10.55;100.00;154069.13;4976973;28;20449;-77
2021/12/30 02:43:18;;;;;;;1.87;0.90;;;;;;;10.57;100.00;154074.31;5008698;28;20457;-77
2021/12/30 02:45:55;;;;;;;1.67;0.80;;;;;;;10.59;100.00;154078.22;4991291;28;20499;-77
2021/12/30 02:48:32;;;;;;;1.30;0.70;;;;;;;10.60;100.00;154082.06;5008989;28;20480;-77
2021/12/30 02:51:10;;;;;;;1.10;0.80;;;;;;;10.66;100.00;154096.31;5009102;28;20774;-77
2021/12/30 02:53:47;;;;;;;1.30;0.97;;;;;;;10.63;100.00;154088.56;5008883;28;20445;-77
2021/12/30 02:56:23;;;;;;;1.50;0.90;;;;;;;10.59;100.00;154079.47;4991967;28;20533;-77
2021/12/30 02:58:59;;;;;;;1.60;1.23;;;;;;;10.59;100.00;154079.47;4990909;28;20445;-76
2021/12/30 03:01:35;;;;;;;1.57;0.80;;;;;;;10.60;100.00;154082.06;4986784;28;20445;-76
2021/12/30 03:04:12;;;;;;;1.63;0.90;;;;;;;10.58;100.00;154076.91;5000437;28;20441;-78
2021/12/30 03:06:50;;;;;;;1.53;0.80;;;;;;;10.55;100.00;154069.13;5012104;28;20476;-79
2021/12/30 03:09:27;;;;;;;1.50;0.73;;;;;;;10.54;100.00;154066.53;5011529;28;20429;-76
2021/12/30 03:12:03;;;;;;;2.33;0.93;;;;;;;10.53;100.00;154062.66;4983030;28;20442;-77
2021/12/30 03:14:39;;;;;;;2.63;0.90;;;;;;;10.54;100.00;154065.28;4976139;28;20445;-77
2021/12/30 03:17:15;;;;;;;1.40;0.90;;;;;;;10.53;100.00;154062.66;5008763;28;20457;-77
2021/12/30 03:19:55;;;;;;;1.40;0.90;;;;;;;10.53;100.00;154063.97;5024364;28;20453;-76
2021/12/30 03:22:31;;;;;;;6.80;1.70;;;;;;;10.55;100.00;154067.84;4991857;28;20445;-77
2021/12/30 03:25:10;;;;;;;2.27;1.00;;;;;;;10.56;100.00;154070.44;5008581;28;20789;-76
2021/12/30 03:27:46;;;;;;;1.10;0.80;;;;;;;10.60;100.00;154082.06;5008191;28;20446;-77
2021/12/30 03:30:22;;;;;;;1.40;1.07;;;;;;;10.59;100.00;154079.47;5007531;28;20453;-79
2021/12/30 03:32:57;;;;;;;1.30;0.83;;;;;;;10.59;100.00;154078.22;5009495;28;20457;-77
2021/12/30 03:35:34;;;;;;;1.77;1.00;;;;;;;10.59;100.00;154078.22;5008617;28;20488;-77
2021/12/30 03:38:09;;;;;;;2.57;1.00;;;;;;;10.59;100.00;154079.47;4992182;28;20836;-77
2021/12/30 03:40:46;;;;;;;1.70;0.80;;;;;;;10.58;100.00;154076.91;4991183;28;20440;-79
2021/12/30 03:43:22;;;;;;;1.30;0.90;;;;;;;10.61;100.00;154084.69;5007553;28;20473;-79
2021/12/30 03:45:58;;;;;;;1.77;0.90;;;;;;;10.61;100.00;154084.69;4992005;28;20457;-78
2021/12/30 03:48:35;;;;;;;1.30;0.90;;;;;;;10.59;100.00;154079.47;5006929;28;20580;-78
2021/12/30 03:51:19;;;;;;;1.00;0.83;;;;;;;10.61;100.00;154084.69;4991506;28;20959;-79
2021/12/30 03:53:57;;;;;;;1.40;1.03;;;;;;;10.62;100.00;154085.94;5024560;28;20429;-79
2021/12/30 03:56:35;;;;;;;1.20;0.80;;;;;;;10.61;100.00;154084.69;5006811;28;20503;-78
2021/12/30 03:59:11;;;;;;;1.80;1.23;;;;;;;10.59;100.00;154079.47;5024232;28;20520;-79
2021/12/30 04:01:46;;;;;;;2.77;0.87;;;;;;;10.66;100.00;154097.63;5012737;28;20448;-79
2021/12/30 04:04:22;;;;;;;6.33;1.60;;;;;;;10.61;100.00;154084.69;4973410;28;20464;-76
2021/12/30 04:06:57;;;;;;;2.07;0.90;;;;;;;10.61;100.00;154084.69;5006349;28;20472;-78
2021/12/30 04:09:33;;;;;;;3.47;1.07;;;;;;;10.63;100.00;154089.84;5012482;28;20519;-78
2021/12/30 04:12:10;;;;;;;1.77;0.83;;;;;;;10.66;100.00;154097.63;5015540;28;20808;-78
2021/12/30 04:14:49;;;;;;;1.60;0.90;;;;;;;10.64;100.00;154091.16;5007104;28;20445;-78
2021/12/30 04:17:24;;;;;;;2.57;1.10;;;;;;;10.66;100.00;154097.63;4991389;28;20929;-78
2021/12/30 04:20:00;;;;;;;1.10;0.90;;;;;;;10.68;100.00;154101.50;5011056;28;20449;-78
2021/12/30 04:22:36;;;;;;;2.10;1.10;;;;;;;10.72;100.00;154113.13;5009673;28;20448;-78
2021/12/30 04:25:14;;;;;;;4.27;1.23;;;;;;;10.69;100.00;154105.41;5010964;28;20531;-78
2021/12/30 04:27:51;;;;;;;1.47;0.97;;;;;;;10.73;100.00;154114.44;4994736;28;20445;-78
2021/12/30 04:30:27;;;;;;;1.77;1.07;;;;;;;10.74;100.00;154118.34;4994635;28;20445;-78
2021/12/30 04:33:03;;;;;;;1.73;0.90;;;;;;;10.76;100.00;154123.53;4994757;28;20453;-78
2021/12/30 04:35:41;;;;;;;2.03;1.40;;;;;;;10.76;100.00;154123.53;4994996;28;20500;-78
2021/12/30 04:38:32;;;;;;;1.47;1.03;;;;;;;10.77;100.00;154126.13;4983034;28;20494;-78
2021/12/30 04:41:08;;;;;;;1.83;0.80;;;;;;;10.77;100.00;154126.13;5006647;28;20456;-78
2021/12/30 04:43:45;;;;;;;1.10;0.83;;;;;;;10.84;100.00;154144.25;4993956;28;20516;-78
2021/12/30 04:46:20;;;;;;;1.77;0.83;;;;;;;10.83;100.00;154141.63;5009933;28;20809;-78
2021/12/30 04:48:56;;;;;;;1.07;0.70;;;;;;;10.88;100.00;154154.56;5010470;28;20484;-78
2021/12/30 04:51:32;;;;;;;1.67;0.90;;;;;;;10.85;100.00;154146.84;5010235;28;20766;-78
2021/12/30 04:54:08;;;;;;;2.90;0.70;;;;;;;10.89;100.00;154157.19;4995495;28;20820;-78
2021/12/30 04:56:44;;;;;;;3.60;1.23;;;;;;;10.87;100.00;154152.03;5010284;28;20484;-78
2021/12/30 04:59:20;;;;;;;1.67;1.00;;;;;;;10.92;100.00;154164.97;4993835;28;20924;-78
2021/12/30 05:01:58;;;;;;;1.47;0.83;;;;;;;10.92;100.00;154164.97;5013364;28;20449;-78
2021/12/30 05:04:33;;;;;;;1.00;0.70;;;;;;;10.88;100.00;154154.56;5010318;28;20465;-78
2021/12/30 05:07:09;;;;;;;1.97;0.90;;;;;;;10.88;100.00;154153.31;4988757;28;20468;-78
2021/12/30 05:09:44;;;;;;;1.10;0.67;;;;;;;10.86;100.00;154149.41;5013780;28;20416;-78
2021/12/30 05:12:20;;;;;;;1.47;0.97;;;;;;;10.85;100.00;154146.84;5029580;28;20543;-78
2021/12/30 05:14:57;;;;;;;1.00;0.80;;;;;;;10.87;100.00;154152.03;4999223;28;20875;-78
2021/12/30 05:17:34;;;;;;;1.30;0.80;;;;;;;10.90;100.00;154158.50;5011687;28;20437;-78
2021/12/30 05:20:12;;;;;;;0.93;0.70;;;;;;;10.92;100.00;154163.66;4994712;28;20426;-78
2021/12/30 05:22:47;;;;;;;1.50;0.63;;;;;;;10.87;100.00;154152.03;4975265;28;20477;-78
2021/12/30 05:25:23;;;;;;;1.67;0.80;;;;;;;10.87;100.00;154150.72;4990004;28;20431;-78
2021/12/30 05:27:59;;;;;;;1.40;0.70;;;;;;;10.89;100.00;154157.19;4990253;28;20945;-78
2021/12/30 05:30:50;;;;;;;1.13;0.70;;;;;;;10.90;100.00;154158.50;4978716;28;20449;-78
2021/12/30 05:33:25;;;;;;;0.90;0.60;;;;;;;10.87;100.00;154150.72;4993349;28;20859;-78
2021/12/30 05:36:01;;;;;;;1.10;0.80;;;;;;;10.92;100.00;154163.66;4998953;28;20437;-78
2021/12/30 05:38:36;;;;;;;1.70;0.70;;;;;;;10.89;100.00;154157.19;5009395;28;20960;-78
2021/12/30 05:41:12;;;;;;;1.73;0.80;;;;;;;10.88;100.00;154154.56;5009067;28;20441;-78
2021/12/30 05:43:47;;;;;;;2.87;0.93;;;;;;;10.90;100.00;154159.78;5009542;28;20469;-78
2021/12/30 05:46:24;;;;;;;1.63;1.10;;;;;;;10.92;100.00;154164.97;5009191;28;20546;-78
2021/12/30 05:49:00;;;;;;;1.50;0.70;;;;;;;10.99;100.00;154181.78;5008645;28;20804;-78
2021/12/30 05:51:35;;;;;;;1.20;0.70;;;;;;;10.98;100.00;154179.22;4993503;28;20445;-78
2021/12/30 05:54:11;;;;;;;1.10;0.70;;;;;;;10.98;100.00;154180.53;4993541;28;20437;-78
2021/12/30 05:56:47;;;;;;;1.00;0.70;;;;;;;10.99;100.00;154183.09;5009763;28;20987;-78
2021/12/30 05:59:22;;;;;;;1.30;0.77;;;;;;;10.99;100.00;154183.09;4997404;28;20448;-78
2021/12/30 06:01:59;;;;;;;1.00;0.60;;;;;;;11.04;100.00;154193.47;5003492;28;20461;-78
2021/12/30 06:04:34;;;;;;;1.30;0.43;;;;;;;10.99;100.00;154183.09;4976937;28;20441;-78
2021/12/30 06:07:10;;;;;;;1.20;0.70;;;;;;;11.07;100.00;154201.25;5018321;28;20579;-78
2021/12/30 06:09:46;;;;;;;1.10;0.60;;;;;;;11.01;100.00;154188.25;5013313;28;20749;-78
2021/12/30 06:12:22;;;;;;;0.97;0.50;;;;;;;11.02;100.00;154190.84;5011877;28;20523;-78
2021/12/30 06:14:58;;;;;;;0.97;0.67;;;;;;;11.04;100.00;154193.47;5013586;28;20441;-78
2021/12/30 06:17:37;;;;;;;0.80;0.40;;;;;;;11.04;100.00;154193.47;5028441;28;20440;-78
2021/12/30 06:20:15;;;;;;;0.90;0.47;;;;;;;11.04;100.00;154194.72;5028188;28;20421;-78
2021/12/30 06:22:51;;;;;;;0.87;0.50;;;;;;;11.07;100.00;154201.25;4998948;28;20554;-78
2021/12/30 06:25:27;;;;;;;1.10;0.70;;;;;;;11.12;100.00;154215.44;4993202;28;20465;-78
2021/12/30 06:28:03;;;;;;;0.80;0.40;;;;;;;11.13;100.00;154216.75;4973435;28;20478;-78
2021/12/30 06:30:38;;;;;;;0.90;0.50;;;;;;;11.16;100.00;154224.53;4988990;28;20478;-78
2021/12/30 06:33:15;;;;;;;1.00;0.40;;;;;;;11.18;100.00;154229.72;4974026;28;20453;-78
2021/12/30 06:35:50;;;;;;;1.23;0.40;;;;;;;11.15;100.00;154223.22;4986007;28;20449;-79
2021/12/30 06:38:26;;;;;;;0.80;0.47;;;;;;;11.16;100.00;154225.84;5008244;28;20936;-79
2021/12/30 06:41:02;;;;;;;1.77;0.40;;;;;;;11.20;100.00;154236.19;4976565;28;20540;-81
2021/12/30 06:43:37;;;;;;;0.97;0.43;;;;;;;11.16;100.00;154224.53;4992041;28;20441;-79
2021/12/30 06:46:14;;;;;;;0.90;0.47;;;;;;;11.23;100.00;154242.66;5008275;28;20477;-79
2021/12/30 06:48:51;;;;;;;3.53;0.73;;;;;;;11.25;100.00;154247.88;5007768;28;20572;-78
2021/12/30 06:51:28;;;;;;;0.70;0.30;;;;;;;11.20;100.00;154234.94;4991742;28;20445;-79
2021/12/30 06:54:04;;;;;;;0.90;0.47;;;;;;;11.21;100.00;154237.47;5008078;28;20963;-78
2021/12/30 06:56:39;;;;;;;0.93;0.50;;;;;;;11.22;100.00;154240.09;5007923;28;20441;-79
2021/12/30 06:59:15;;;;;;;0.90;0.50;;;;;;;11.23;100.00;154242.66;5024398;28;20453;-79
2021/12/30 07:01:51;;;;;;;3.97;0.80;;;;;;;11.28;100.00;154256.91;4975101;28;20552;-79
2021/12/30 07:04:28;;;;;;;1.40;0.50;;;;;;;11.26;100.00;154251.75;4992713;28;20442;-79
2021/12/30 07:07:04;;;;;;;0.80;0.40;;;;;;;11.28;100.00;154255.66;5015780;28;20468;-80
2021/12/30 07:09:39;;;;;;;1.13;0.43;;;;;;;11.30;100.00;154260.81;4995844;28;20434;-79
2021/12/30 07:12:15;;;;;;;1.23;0.57;;;;;;;11.36;100.00;154276.34;5022112;28;20445;-79
2021/12/30 07:14:51;;;;;;;0.90;0.50;;;;;;;11.35;100.00;154273.78;4993102;28;20409;-79
2021/12/30 07:17:29;;;;;;;1.27;0.70;;;;;;;11.38;100.00;154281.56;4991757;28;20528;-79
2021/12/30 07:20:07;;;;;;;2.03;0.70;;;;;;;11.34;100.00;154271.16;5007320;28;20445;-79
2021/12/30 07:22:43;;;;;;;1.20;0.60;;;;;;;11.35;100.00;154273.78;5006807;28;20936;-79
2021/12/30 07:25:18;;;;;;;1.17;0.53;;;;;;;11.36;100.00;154276.34;5007135;28;21003;-79
2021/12/30 07:27:55;;;;;;;4.30;0.67;;;;;;;11.35;100.00;154273.78;4991897;28;20469;-79
2021/12/30 07:30:31;;;;;;;1.37;0.53;;;;;;;11.34;100.00;154271.16;4991985;28;20449;-79
2021/12/30 07:33:07;;;;;;;0.80;0.50;;;;;;;11.35;100.00;154273.78;5007641;28;20449;-79
2021/12/30 07:35:44;;;;;;;1.00;0.73;;;;;;;11.38;100.00;154282.84;5007866;28;20442;-79
2021/12/30 07:38:19;;;;;;;1.00;0.60;;;;;;;11.40;100.00;154286.72;5003716;28;20456;-79
2021/12/30 07:40:55;;;;;;;1.20;0.77;;;;;;;11.41;100.00;154290.59;5006160;28;21097;-79
2021/12/30 07:43:31;;;;;;;2.53;0.90;;;;;;;11.42;100.00;154291.91;4977301;28;20458;-78
2021/12/30 07:46:07;;;;;;;1.40;0.90;;;;;;;11.50;100.00;154313.94;4987874;28;20452;-78
2021/12/30 07:48:43;;;;;;;1.67;0.60;;;;;;;11.42;100.00;154293.19;4990871;28;20476;-78
2021/12/30 07:51:20;;;;;;;1.00;0.70;;;;;;;11.42;100.00;154293.19;5007504;28;20861;-78
2021/12/30 07:53:55;;;;;;;0.80;0.57;;;;;;;11.45;100.00;154299.69;4974244;28;20433;-78
2021/12/30 07:56:31;;;;;;;2.60;0.70;;;;;;;11.48;100.00;154308.75;4990251;28;20449;-79
2021/12/30 07:59:06;;;;;;;2.00;0.70;;;;;;;11.46;100.00;154302.28;5006167;28;20552;-79
2021/12/30 08:01:42;;;;;;;1.00;0.77;;;;;;;11.49;100.00;154311.31;5006922;28;20457;-78
2021/12/30 08:04:18;;;;;;;1.73;0.90;;;;;;;11.52;100.00;154317.81;4990339;28;20449;-79
2021/12/30 08:06:55;;;;;;;1.03;0.70;;;;;;;11.51;100.00;154315.25;5011479;28;21082;-78
2021/12/30 08:09:30;;;;;;;1.33;0.80;;;;;;;11.55;100.00;154325.59;5009379;28;20843;-79
2021/12/30 08:12:06;;;;;;;0.90;0.63;;;;;;;11.52;100.00;154317.81;5010293;28;20203;-79
2021/12/30 08:14:42;;;;;;;1.10;0.80;;;;;;;11.56;100.00;154328.19;5026805;28;20437;-79
2021/12/30 08:17:18;;;;;;;1.30;0.77;;;;;;;11.53;100.00;154320.41;4993294;28;20951;-78
2021/12/30 08:19:53;;;;;;;1.20;0.70;;;;;;;11.52;100.00;154317.81;4990162;28;20457;-79
2021/12/30 08:22:30;;;;;;;1.40;0.70;;;;;;;11.61;100.00;154341.16;5005393;28;20480;-79
2021/12/30 08:25:07;;;;;;;1.17;0.87;;;;;;;11.59;100.00;154335.97;4993169;28;20449;-79
2021/12/30 08:27:43;;;;;;;1.23;0.90;;;;;;;11.59;100.00;154335.97;5006833;28;20473;-79
2021/12/30 08:30:20;;;;;;;1.30;0.93;;;;;;;11.59;100.00;154337.28;5021423;28;20442;-79
2021/12/30 08:32:56;;;;;;;1.37;0.80;;;;;;;11.58;100.00;154334.66;4982336;28;20449;-79
2021/12/30 08:35:31;;;;;;;1.37;0.60;;;;;;;11.65;100.00;154351.50;4999600;28;20513;-79
2021/12/30 08:38:09;;;;;;;1.57;1.00;;;;;;;11.65;100.00;154351.50;5002170;28;20434;-79
2021/12/30 08:40:47;;;;;;;1.20;1.00;;;;;;;11.63;100.00;154346.31;4992222;28;20444;-80
2021/12/30 08:43:23;;;;;;;1.00;0.80;;;;;;;11.67;100.00;154356.72;5007084;28;20488;-79
2021/12/30 08:45:58;;;;;;;1.40;1.30;;;;;;;11.71;100.00;154367.09;5012598;28;20780;-79
2021/12/30 08:48:36;;;;;;;1.27;0.73;;;;;;;11.76;100.00;154378.75;5005213;28;20477;-80
2021/12/30 08:51:12;;;;;;;1.10;0.70;;;;;;;11.77;100.00;154382.66;4968884;28;20449;-80
2021/12/30 08:53:50;;;;;;;0.80;0.40;;;;;;;11.76;100.00;154380.06;4989011;28;20822;-88
2021/12/30 08:56:25;;;;;;;1.40;0.80;;;;;;;11.73;100.00;154372.28;5002383;28;20449;-79
2021/12/30 08:59:01;;;;;;;1.27;0.93;;;;;;;11.74;100.00;154374.88;4988749;28;20523;-79
2021/12/30 09:01:39;;;;;;;0.97;0.67;;;;;;;11.78;100.00;154385.22;5003015;28;20973;-79
2021/12/30 09:04:14;;;;;;;1.20;0.83;;;;;;;11.81;100.00;154393.00;4990746;28;20453;-79
2021/12/30 09:06:50;;;;;;;1.03;0.60;;;;;;;11.83;100.00;154398.22;4987093;28;20457;-77
2021/12/30 09:09:27;;;;;;;0.93;0.60;;;;;;;11.90;100.00;154415.06;5010884;28;20960;-79
2021/12/30 09:12:04;;;;;;;1.00;0.70;;;;;;;11.92;100.00;154421.53;5004975;28;20968;-77
2021/12/30 09:14:39;;;;;;;1.20;0.70;;;;;;;12.04;100.00;154452.69;5013276;28;20457;-77
2021/12/30 09:17:15;;;;;;;0.83;0.50;;;;;;;12.06;100.00;154457.84;5007689;28;20485;-77
2021/12/30 09:19:50;;;;;;;1.40;0.80;;;;;;;12.09;100.00;154464.31;5002065;28;20939;-77
2021/12/30 09:22:26;;;;;;;1.10;0.67;;;;;;;12.15;100.00;154481.16;5009896;28;20437;-77
2021/12/30 09:25:06;;;;;;;1.00;0.60;;;;;;;12.17;100.00;154486.38;4991828;28;20460;-77
2021/12/30 09:27:42;;;;;;;1.10;0.80;;;;;;;12.16;100.00;154483.78;4989811;28;22164;-77
2021/12/30 09:30:18;;;;;;;1.07;0.70;;;;;;;12.27;100.00;154511.00;5006143;28;20929;-77
2021/12/30 09:32:54;;;;;;;1.20;0.80;;;;;;;12.33;100.00;154525.25;4994662;28;20816;-77
2021/12/30 09:35:30;;;;;;;1.50;0.70;;;;;;;12.46;100.00;154558.97;5007340;28;20804;-77
2021/12/30 09:38:06;;;;;;;1.20;0.63;;;;;;;12.50;100.00;154570.63;5008300;28;20434;-77
2021/12/30 09:40:43;;;;;;;1.63;0.93;;;;;;;12.54;100.00;154579.72;4989290;28;20521;-77
2021/12/30 09:43:19;;;;;;;1.07;0.60;;;;;;;12.60;100.00;154595.28;4994656;28;20446;-77
2021/12/30 09:45:54;;;;;;;1.07;0.70;;;;;;;12.64;100.00;154605.66;5007916;28;20444;-77
2021/12/30 09:48:30;;;;;;;1.83;0.70;;;;;;;12.68;100.00;154616.03;4972439;28;21571;-77
2021/12/30 09:51:07;;;;;;;1.10;0.70;;;;;;;12.63;100.00;154604.34;4989764;28;20448;-76
2021/12/30 09:53:43;;;;;;;1.07;0.60;;;;;;;12.68;100.00;154616.03;5006369;28;20459;-77
2021/12/30 09:56:20;;;;;;;1.73;0.60;;;;;;;12.71;100.00;154623.78;5009186;28;20817;-77
2021/12/30 09:58:56;;;;;;;0.90;0.60;;;;;;;12.74;100.00;154631.56;4992903;28;20445;-77
2021/12/30 10:01:32;;;;;;;1.00;0.57;;;;;;;12.76;100.00;154638.06;4990191;28;20556;-77
2021/12/30 10:04:09;;;;;;;1.10;0.60;;;;;;;12.84;100.00;154657.50;5006193;28;20536;-77
2021/12/30 10:06:49;;;;;;;1.80;0.70;;;;;;;12.86;100.00;154661.44;4991802;28;20461;-77
2021/12/30 10:09:39;;;;;;;3.43;0.80;;;;;;;12.89;100.00;154670.53;4981114;28;20437;-77
2021/12/30 10:12:16;;;;;;;1.20;0.60;;;;;;;12.91;100.00;154674.41;4989901;28;20540;-77
2021/12/30 10:14:54;;;;;;;1.37;0.70;;;;;;;12.94;100.00;154683.50;4989993;28;20457;-77
2021/12/30 10:17:29;;;;;;;1.00;0.60;;;;;;;12.94;100.00;154683.50;4976917;28;20453;-77
2021/12/30 10:20:19;;;;;;;1.07;0.70;;;;;;;12.95;100.00;154686.06;5012333;28;20449;-77
2021/12/30 10:22:56;;;;;;;0.90;0.50;;;;;;;12.98;100.00;154693.84;4991981;28;20474;-77
2021/12/30 10:25:32;;;;;;;1.30;0.73;;;;;;;12.94;100.00;154683.50;4983154;28;20740;-77
2021/12/30 10:28:22;;;;;;;1.20;0.70;;;;;;;12.97;100.00;154691.28;4986121;28;20472;-77
2021/12/30 10:31:00;;;;;;;1.00;0.60;;;;;;;13.01;100.00;154701.63;4991744;28;20446;-77
2021/12/30 10:33:35;;;;;;;1.00;0.60;;;;;;;13.05;100.00;154712.00;4980277;28;20811;-77
2021/12/30 10:36:16;;;;;;;1.40;0.60;;;;;;;13.03;100.00;154706.81;5002785;28;20452;-77
2021/12/30 10:38:56;;;;;;;1.20;0.70;;;;;;;13.05;100.00;154712.00;4991442;28;20673;-77
2021/12/30 10:41:31;;;;;;;1.30;0.80;;;;;;;13.09;100.00;154722.44;4990907;28;20777;-77
2021/12/30 10:44:08;;;;;;;1.80;0.93;;;;;;;13.10;100.00;154723.75;4989474;28;20484;-77
2021/12/30 10:46:44;;;;;;;1.00;0.60;;;;;;;13.10;100.00;154723.75;5007753;28;20477;-77
2021/12/30 10:49:22;;;;;;;1.00;0.70;;;;;;;13.13;100.00;154731.53;5008158;28;20473;-77
2021/12/30 10:51:59;;;;;;;1.20;0.60;;;;;;;13.12;100.00;154730.22;5002986;28;20453;-77
2021/12/30 10:54:39;;;;;;;2.30;0.87;;;;;;;13.17;100.00;154741.91;4986375;28;20445;-77
2021/12/30 10:57:14;;;;;;;1.17;0.80;;;;;;;13.25;100.00;154762.66;5004838;28;20940;-77
2021/12/30 10:59:51;;;;;;;2.10;0.70;;;;;;;13.27;100.00;154769.13;5009441;28;20449;-77
2021/12/30 11:02:29;;;;;;;0.90;0.60;;;;;;;13.36;100.00;154792.53;4997235;28;20867;-77
2021/12/30 11:05:10;;;;;;;1.10;0.70;;;;;;;13.40;100.00;154802.88;5007392;28;20874;-77
2021/12/30 11:07:47;;;;;;;1.30;0.80;;;;;;;13.43;100.00;154810.66;5015174;28;20465;-77
2021/12/30 11:10:30;;;;;;;1.13;0.80;;;;;;;13.46;100.00;154815.84;4977515;28;20794;-77
2021/12/30 11:13:10;;;;;;;1.10;0.70;;;;;;;13.52;100.00;154831.44;4977793;28;20451;-77
2021/12/30 11:16:02;;;;;;;1.03;0.60;;;;;;;13.47;100.00;154818.47;4974358;28;20450;-77
2021/12/30 11:18:41;;;;;;;1.00;0.50;;;;;;;13.49;100.00;154824.94;4992653;28;20528;-77
2021/12/30 11:21:40;;;;;;;1.00;0.60;;;;;;;13.55;100.00;154839.22;4991356;28;20537;-77
2021/12/30 11:24:16;;;;;;;1.03;0.60;;;;;;;13.59;100.00;154849.59;5018463;28;20540;-77
2021/12/30 11:26:52;;;;;;;1.30;0.70;;;;;;;13.60;100.00;154852.22;4984505;28;20442;-77
2021/12/30 11:29:28;;;;;;;0.90;0.50;;;;;;;13.62;100.00;154858.69;4991541;28;20478;-77
2021/12/30 11:32:07;;;;;;;0.93;0.40;;;;;;;13.73;100.00;154887.25;4979996;28;20540;-77
2021/12/30 11:34:43;;;;;;;0.90;0.40;;;;;;;13.81;100.00;154906.72;4986397;28;20850;-77
2021/12/30 11:37:22;;;;;;;1.20;0.67;;;;;;;13.81;100.00;154908.03;5001036;28;20438;-77
2021/12/30 11:40:00;;;;;;;0.90;0.47;;;;;;;13.88;100.00;154924.88;4989445;28;20446;-77
2021/12/30 11:42:38;;;;;;;1.43;0.30;;;;;;;13.91;100.00;154932.66;5002782;28;20545;-77
2021/12/30 11:45:26;;;;;;;0.80;0.40;;;;;;;13.95;100.00;154944.34;4988764;28;20445;-77
2021/12/30 11:48:04;;;;;;;1.37;0.40;;;;;;;13.99;100.00;154953.44;5022688;28;20481;-77
2021/12/30 11:50:41;;;;;;;0.87;0.37;;;;;;;14.00;100.00;154956.06;4988443;28;20466;-77
2021/12/30 11:53:26;;;;;;;1.00;0.60;;;;;;;14.09;100.00;154979.41;4991783;28;20449;-77
2021/12/30 11:56:03;;;;;;;1.57;0.40;;;;;;;14.15;100.00;154993.69;5003265;28;20461;-77
2021/12/30 11:58:42;;;;;;;0.70;0.30;;;;;;;14.17;100.00;154998.88;4983642;28;20544;-77
2021/12/30 12:01:37;;;;;;;0.80;0.30;;;;;;;14.18;100.00;155002.78;4990847;28;20456;-77